Time;durP1;ratioP1;P1;durP2;ratioP2;P2;SDS_P1;SDS_P2;PMS_P1;PMS_P2;Temp;Humidity;BMP_temperature;BMP_pressure;BME280_temperature;BME280_humidity;BME280_pressure;Samples;Min_cycle;Max_cycle;Signal;HPM_P1;HPM_P2
2022/07/28 00:01:37;;;;;;;6.53;2.00;;;;;;;16.56;52.90;101469.81;5096696;28;20596;-59
2022/07/28 00:04:04;;;;;;;11.52;2.30;;;;;;;16.56;53.21;101470.66;5095928;28;20051;-61
2022/07/28 00:06:31;;;;;;;10.95;1.80;;;;;;;16.58;53.02;101471.31;5096448;28;20497;-60
2022/07/28 00:08:58;;;;;;;15.63;3.10;;;;;;;16.48;53.00;101474.22;5096051;28;20036;-60
2022/07/28 00:11:24;;;;;;;8.20;2.20;;;;;;;16.65;52.84;101471.44;5078681;28;20048;-59
2022/07/28 00:13:51;;;;;;;8.77;2.20;;;;;;;16.62;52.98;101474.47;5096412;28;20562;-59
2022/07/28 00:16:18;;;;;;;6.22;1.95;;;;;;;16.70;53.03;101472.59;5096365;28;20055;-60
2022/07/28 00:18:45;;;;;;;6.78;2.00;;;;;;;16.52;52.96;101469.34;5096039;28;20048;-59
2022/07/28 00:21:12;;;;;;;9.40;2.08;;;;;;;16.47;53.21;101464.50;5096305;28;20036;-60
2022/07/28 00:23:38;;;;;;;7.97;2.22;;;;;;;16.45;53.28;101463.00;5095866;28;20102;-59
2022/07/28 00:26:07;;;;;;;9.32;2.00;;;;;;;16.49;53.20;101470.50;5095123;28;20051;-59
2022/07/28 00:28:33;;;;;;;8.27;2.20;;;;;;;16.40;53.30;101460.84;5080888;28;20040;-60
2022/07/28 00:31:00;;;;;;;10.25;2.08;;;;;;;16.36;53.29;101458.72;5075876;28;20080;-59
2022/07/28 00:33:27;;;;;;;11.50;2.50;;;;;;;16.35;53.80;101457.84;5074179;28;20446;-59
2022/07/28 00:35:54;;;;;;;7.78;1.83;;;;;;;16.44;53.66;101454.13;5075414;28;20044;-60
2022/07/28 00:38:20;;;;;;;9.90;1.90;;;;;;;16.46;53.54;101451.28;5075555;28;20048;-60
2022/07/28 00:41:19;;;;;;;7.68;1.70;;;;;;;16.39;53.45;101450.31;5075665;28;20551;-59
2022/07/28 00:43:34;;;;;;;7.93;2.13;;;;;;;16.17;53.70;101455.44;5076189;28;20045;-59
2022/07/28 00:46:01;;;;;;;8.85;1.90;;;;;;;16.23;53.32;101445.88;5095421;28;20071;-59
2022/07/28 00:48:27;;;;;;;7.15;1.80;;;;;;;16.21;53.63;101446.06;5095489;28;20044;-58
2022/07/28 00:50:54;;;;;;;7.68;2.20;;;;;;;16.18;53.79;101443.72;5095241;28;20067;-60
2022/07/28 00:53:22;;;;;;;8.70;2.05;;;;;;;16.16;53.63;101442.25;5095774;28;20520;-59
2022/07/28 00:55:48;;;;;;;12.02;2.20;;;;;;;16.09;53.82;101440.25;5095588;28;20052;-59
2022/07/28 00:58:15;;;;;;;9.30;2.00;;;;;;;16.21;53.79;101438.03;5095193;28;20482;-59
2022/07/28 01:00:42;;;;;;;7.05;1.90;;;;;;;16.14;53.70;101437.06;5094628;28;20447;-60
2022/07/28 01:03:09;;;;;;;11.88;2.20;;;;;;;16.09;53.94;101436.72;5095322;28;20093;-60
2022/07/28 01:05:44;;;;;;;10.48;1.95;;;;;;;16.11;53.88;101432.03;5095315;28;20056;-60
2022/07/28 01:08:26;;;;;;;7.18;2.00;;;;;;;16.09;53.63;101444.75;5095287;28;20551;-60
2022/07/28 01:11:16;;;;;;;5.63;1.90;;;;;;;16.16;53.56;101443.06;5094270;28;20404;-60
2022/07/28 01:13:59;;;;;;;9.05;2.65;;;;;;;16.18;53.58;101433.00;5095445;28;20383;-59
2022/07/28 01:16:27;;;;;;;8.73;2.00;;;;;;;16.16;53.62;101437.72;5095013;28;20044;-59
2022/07/28 01:19:00;;;;;;;10.45;2.22;;;;;;;16.09;53.74;101434.06;5094809;28;20077;-59
2022/07/28 01:21:33;;;;;;;10.18;1.83;;;;;;;16.12;53.83;101426.53;5094774;28;20516;-60
2022/07/28 01:24:25;;;;;;;11.52;2.22;;;;;;;15.96;54.00;101428.44;5095122;28;20051;-60
2022/07/28 01:27:04;;;;;;;11.75;2.15;;;;;;;16.00;54.39;101427.06;5093586;28;20055;-60
2022/07/28 01:30:09;;;;;;;8.80;2.10;;;;;;;15.80;54.58;101426.63;5094887;28;20397;-60
2022/07/28 01:32:42;;;;;;;7.95;2.03;;;;;;;15.87;54.54;101423.09;5094536;28;20063;-60
2022/07/28 01:35:14;;;;;;;6.57;1.90;;;;;;;15.90;54.66;101430.78;5094169;28;20044;-60
2022/07/28 01:37:46;;;;;;;9.15;2.17;;;;;;;15.91;54.74;101427.09;5094856;28;20054;-60
2022/07/28 01:40:16;;;;;;;6.80;1.90;;;;;;;15.91;55.02;101426.25;5094785;28;20139;-60
2022/07/28 01:42:47;;;;;;;6.72;1.90;;;;;;;15.94;54.69;101428.59;5094532;28;20122;-60
2022/07/28 01:45:15;;;;;;;11.52;2.03;;;;;;;15.79;54.83;101422.28;5094725;28;20482;-60
2022/07/28 01:47:44;;;;;;;8.82;2.00;;;;;;;15.83;55.19;101426.31;5094300;28;20079;-58
2022/07/28 01:50:13;;;;;;;9.38;2.20;;;;;;;15.78;55.28;101426.81;5094526;28;20044;-60
2022/07/28 01:52:41;;;;;;;5.72;2.13;;;;;;;15.87;54.82;101420.41;5094559;28;20048;-58
2022/07/28 01:55:09;;;;;;;8.85;1.80;;;;;;;15.96;55.10;101420.41;5094249;28;20044;-60
2022/07/28 01:57:37;;;;;;;10.50;1.83;;;;;;;15.90;55.01;101411.22;5094503;28;20040;-60
2022/07/28 02:00:08;;;;;;;6.60;2.30;;;;;;;15.88;55.17;101411.41;5094072;28;20033;-59
2022/07/28 02:02:42;;;;;;;11.43;2.30;;;;;;;15.79;55.40;101411.56;5094288;28;20048;-60
2022/07/28 02:05:12;;;;;;;7.53;2.10;;;;;;;15.87;55.67;101409.72;5093582;28;20036;-60
2022/07/28 02:07:41;;;;;;;8.93;2.00;;;;;;;15.86;55.55;101418.78;5094442;28;20040;-60
2022/07/28 02:10:11;;;;;;;6.20;1.95;;;;;;;15.91;55.37;101410.22;5093156;28;20047;-60
2022/07/28 02:12:39;;;;;;;11.52;2.40;;;;;;;15.99;55.08;101406.66;5093899;28;20515;-60
2022/07/28 02:15:10;;;;;;;16.40;2.20;;;;;;;15.93;55.35;101410.88;5094146;28;20097;-60
2022/07/28 02:17:41;;;;;;;8.88;2.08;;;;;;;16.00;55.06;101403.81;5094198;28;20123;-60
2022/07/28 02:20:09;;;;;;;10.30;2.35;;;;;;;15.83;55.55;101404.91;5093910;28;20470;-60
2022/07/28 02:22:38;;;;;;;8.55;2.08;;;;;;;15.93;55.72;101394.81;5093848;28;20127;-60
2022/07/28 02:25:06;;;;;;;8.63;2.10;;;;;;;15.95;55.24;101387.44;5093916;28;20105;-59
2022/07/28 02:27:42;;;;;;;10.32;2.28;;;;;;;15.61;56.39;101388.56;5091088;28;20052;-60
2022/07/28 02:30:14;;;;;;;6.43;1.90;;;;;;;15.57;56.54;101381.03;5073034;28;20072;-59
2022/07/28 02:32:49;;;;;;;10.35;2.03;;;;;;;15.54;56.67;101383.03;5072944;28;20044;-60
2022/07/28 02:35:27;;;;;;;17.23;2.70;;;;;;;15.45;56.84;101389.41;5073577;28;20055;-60
2022/07/28 02:38:00;;;;;;;12.10;2.25;;;;;;;15.50;57.20;101386.25;5072326;28;20494;-60
2022/07/28 02:40:33;;;;;;;8.13;2.00;;;;;;;15.62;56.86;101381.34;5073206;28;20044;-60
2022/07/28 02:43:01;;;;;;;11.75;2.25;;;;;;;15.48;57.14;101388.22;5073446;28;20051;-59
2022/07/28 02:45:31;;;;;;;9.10;2.00;;;;;;;15.60;57.20;101378.03;5090187;28;20072;-60
2022/07/28 02:48:04;;;;;;;17.88;2.00;;;;;;;15.66;57.05;101382.66;5093094;28;20413;-59
2022/07/28 02:50:31;;;;;;;10.15;2.17;;;;;;;15.53;57.41;101385.88;5093809;28;20490;-60
2022/07/28 02:53:01;;;;;;;8.98;2.00;;;;;;;15.35;57.89;101381.59;5093603;28;20076;-59
2022/07/28 02:55:29;;;;;;;9.07;2.30;;;;;;;15.41;57.48;101376.53;5093669;28;20044;-59
2022/07/28 02:57:57;;;;;;;10.13;2.20;;;;;;;15.33;58.13;101372.06;5093303;28;20036;-59
2022/07/28 03:00:25;;;;;;;8.20;2.30;;;;;;;15.23;58.07;101368.75;5093555;28;20056;-59
2022/07/28 03:02:54;;;;;;;12.25;2.17;;;;;;;15.30;58.17;101370.56;5093168;28;20134;-59
2022/07/28 03:05:22;;;;;;;9.00;2.20;;;;;;;15.41;57.75;101372.06;5093037;28;20048;-60
2022/07/28 03:07:51;;;;;;;10.93;2.50;;;;;;;15.31;57.87;101372.22;5093303;28;20543;-59
2022/07/28 03:10:21;;;;;;;8.93;2.20;;;;;;;15.19;58.60;101368.25;5093916;28;20448;-59
2022/07/28 03:12:48;;;;;;;13.45;2.30;;;;;;;15.13;58.66;101366.25;5093114;28;20044;-59
2022/07/28 03:15:14;;;;;;;7.65;2.20;;;;;;;15.15;58.76;101367.75;5093518;28;20048;-59
2022/07/28 03:17:41;;;;;;;7.40;2.17;;;;;;;15.22;58.28;101370.56;5093070;28;20044;-58
2022/07/28 03:20:10;;;;;;;7.53;2.30;;;;;;;15.11;58.67;101369.06;5092163;28;20111;-59
2022/07/28 03:22:37;;;;;;;10.52;2.67;;;;;;;15.21;59.02;101374.25;5095329;28;20404;-59
2022/07/28 03:25:10;;;;;;;13.73;2.60;;;;;;;15.26;58.83;101373.75;5097588;28;20051;-59
2022/07/28 03:27:40;;;;;;;10.27;2.20;;;;;;;14.93;59.44;101376.44;5097272;28;20079;-59
2022/07/28 03:30:11;;;;;;;8.38;2.50;;;;;;;14.97;59.86;101375.94;5097755;28;20131;-59
2022/07/28 03:32:43;;;;;;;7.95;2.50;;;;;;;15.05;60.03;101383.13;5097203;28;20047;-59
2022/07/28 03:35:11;;;;;;;8.27;2.65;;;;;;;15.02;59.69;101383.44;5096365;28;20043;-59
2022/07/28 03:37:45;;;;;;;10.52;2.58;;;;;;;15.18;59.11;101387.94;5096964;28;20068;-59
2022/07/28 03:40:13;;;;;;;13.88;2.28;;;;;;;15.10;59.61;101385.31;5097512;28;20473;-59
2022/07/28 03:42:43;;;;;;;13.20;2.60;;;;;;;14.90;59.78;101384.81;5096937;28;20052;-59
2022/07/28 03:45:10;;;;;;;11.13;2.22;;;;;;;14.95;60.02;101380.63;5096847;28;20402;-59
2022/07/28 03:47:37;;;;;;;9.35;2.80;;;;;;;15.04;59.70;101380.59;5096826;28;20076;-59
2022/07/28 03:50:04;;;;;;;15.75;2.40;;;;;;;15.04;59.49;101384.09;5096929;28;20044;-59
2022/07/28 03:52:30;;;;;;;9.35;2.40;;;;;;;15.03;59.78;101385.13;5096983;28;20074;-58
2022/07/28 03:54:57;;;;;;;10.52;3.20;;;;;;;15.04;59.80;101385.97;5096805;28;20048;-59
2022/07/28 03:57:24;;;;;;;10.18;2.45;;;;;;;15.02;59.88;101385.28;5096529;28;20459;-59
2022/07/28 03:59:51;;;;;;;12.95;2.40;;;;;;;15.07;60.23;101391.78;5096525;28;20474;-59
2022/07/28 04:02:18;;;;;;;14.65;2.60;;;;;;;15.00;60.28;101397.97;5096853;28;20068;-59
2022/07/28 04:04:44;;;;;;;13.43;2.28;;;;;;;14.92;60.97;101396.16;5095667;28;20043;-59
2022/07/28 04:07:12;;;;;;;9.93;2.50;;;;;;;14.94;60.19;101383.47;5096666;28;20056;-58
2022/07/28 04:09:39;;;;;;;10.75;2.75;;;;;;;14.85;60.81;101387.97;5096293;28;20044;-59
2022/07/28 04:12:06;;;;;;;12.02;2.53;;;;;;;14.89;61.04;101383.94;5096603;28;20071;-59
2022/07/28 04:14:32;;;;;;;9.13;2.63;;;;;;;14.89;61.11;101383.94;5096329;28;20047;-58
2022/07/28 04:16:59;;;;;;;12.40;2.75;;;;;;;14.86;61.10;101383.44;5096327;28;20486;-59
2022/07/28 04:19:26;;;;;;;11.88;2.67;;;;;;;14.86;61.49;101381.63;5096377;28;20115;-59
2022/07/28 04:21:52;;;;;;;9.82;2.40;;;;;;;14.81;61.24;101385.78;5096355;28;20075;-59
2022/07/28 04:24:19;;;;;;;11.32;2.60;;;;;;;14.66;61.93;101383.78;5096113;28;20077;-59
2022/07/28 04:26:46;;;;;;;9.02;2.47;;;;;;;14.81;61.60;101377.75;5096173;28;20126;-59
2022/07/28 04:29:13;;;;;;;12.50;2.80;;;;;;;14.84;61.85;101377.44;5087655;28;20494;-59
2022/07/28 04:31:40;;;;;;;9.30;2.70;;;;;;;14.82;61.71;101377.59;5074852;28;20036;-59
2022/07/28 04:34:07;;;;;;;11.50;2.70;;;;;;;14.81;61.72;101383.09;5074941;28;20486;-59
2022/07/28 04:36:40;;;;;;;11.85;2.70;;;;;;;14.91;61.55;101389.13;5075739;28;20153;-59
2022/07/28 04:39:09;;;;;;;17.42;2.60;;;;;;;14.94;62.10;101389.63;5075733;28;20060;-59
2022/07/28 04:41:37;;;;;;;11.38;2.97;;;;;;;14.98;61.53;101382.13;5075731;28;20041;-59
2022/07/28 04:44:04;;;;;;;12.35;2.53;;;;;;;14.91;61.56;101379.28;5080152;28;20028;-59
2022/07/28 04:46:30;;;;;;;9.32;2.60;;;;;;;14.87;61.69;101380.63;5095431;28;20409;-59
2022/07/28 04:48:57;;;;;;;13.02;3.25;;;;;;;14.91;61.53;101384.63;5095450;28;20127;-59
2022/07/28 04:51:24;;;;;;;17.05;2.90;;;;;;;14.82;61.54;101390.97;5095844;28;20066;-59
2022/07/28 04:53:52;;;;;;;12.80;2.67;;;;;;;14.87;61.69;101385.97;5095706;28;20047;-59
2022/07/28 04:56:18;;;;;;;10.65;2.80;;;;;;;14.96;61.83;101387.63;5095842;28;20089;-59
2022/07/28 04:58:45;;;;;;;12.13;2.85;;;;;;;14.93;62.16;101387.94;5095155;28;20050;-60
2022/07/28 05:01:12;;;;;;;11.73;2.72;;;;;;;14.83;62.00;101386.47;5095364;28;20516;-59
2022/07/28 05:03:39;;;;;;;9.98;3.60;;;;;;;14.78;61.92;101389.63;5094819;28;20048;-59
2022/07/28 05:06:05;;;;;;;8.77;2.90;;;;;;;14.81;61.94;101391.97;5095271;28;20417;-59
2022/07/28 05:08:32;;;;;;;13.65;3.10;;;;;;;14.69;62.34;101393.28;5095266;28;20501;-59
2022/07/28 05:10:59;;;;;;;11.25;2.80;;;;;;;14.66;62.79;101390.94;5095503;28;20090;-59
2022/07/28 05:13:26;;;;;;;15.02;3.00;;;;;;;14.64;62.78;101392.94;5093825;28;20070;-59
2022/07/28 05:15:57;;;;;;;13.00;2.90;;;;;;;14.65;63.01;101391.97;5095123;28;20093;-58
2022/07/28 05:18:24;;;;;;;16.77;3.10;;;;;;;14.65;62.69;101390.13;5095249;28;20416;-60
2022/07/28 05:20:50;;;;;;;14.43;3.10;;;;;;;14.84;62.29;101399.63;5095205;28;20474;-59
2022/07/28 05:23:17;;;;;;;16.42;3.00;;;;;;;14.82;63.12;101390.13;5094798;28;20048;-59
2022/07/28 05:25:45;;;;;;;14.80;2.92;;;;;;;14.82;62.58;101392.81;5094012;28;20054;-59
2022/07/28 05:28:11;;;;;;;16.90;3.03;;;;;;;14.82;62.46;101390.13;5094905;28;20087;-60
2022/07/28 05:30:38;;;;;;;11.32;2.83;;;;;;;14.98;62.65;101382.94;5094062;28;20036;-59
2022/07/28 05:33:05;;;;;;;13.88;3.35;;;;;;;15.06;62.71;101376.78;5094759;28;20078;-59
2022/07/28 05:35:31;;;;;;;14.70;3.63;;;;;;;15.13;62.46;101379.59;5094731;28;20052;-59
2022/07/28 05:37:58;;;;;;;16.63;3.92;;;;;;;15.13;61.94;101377.78;5094904;28;20044;-60
2022/07/28 05:40:26;;;;;;;12.50;3.40;;;;;;;15.01;62.17;101379.13;5094719;28;20044;-59
2022/07/28 05:42:52;;;;;;;14.52;3.45;;;;;;;15.10;61.95;101377.28;5094502;28;20044;-59
2022/07/28 05:45:19;;;;;;;15.75;3.10;;;;;;;15.10;61.93;101380.78;5094597;28;20071;-60
2022/07/28 05:47:48;;;;;;;11.82;3.17;;;;;;;15.25;61.80;101382.78;5094481;28;20056;-59
2022/07/28 05:50:17;;;;;;;10.32;3.08;;;;;;;15.33;61.16;101377.41;5094182;28;20036;-59
2022/07/28 05:52:44;;;;;;;11.85;3.42;;;;;;;15.38;61.24;101379.59;5094601;28;20052;-59
2022/07/28 05:55:12;;;;;;;11.00;3.30;;;;;;;15.47;61.12;101378.56;5094341;28;20097;-60
2022/07/28 05:57:40;;;;;;;15.50;3.40;;;;;;;15.60;60.56;101375.34;5094531;28;20067;-59
2022/07/28 06:00:09;;;;;;;15.95;3.00;;;;;;;15.74;60.37;101378.16;5094216;28;20064;-59
2022/07/28 06:02:40;;;;;;;18.98;3.20;;;;;;;15.70;60.28;101382.16;5094313;28;20044;-60
2022/07/28 06:05:07;;;;;;;13.35;2.92;;;;;;;15.75;60.13;101376.31;5093618;28;20577;-59
2022/07/28 06:07:34;;;;;;;18.30;3.40;;;;;;;15.77;60.15;101382.34;5094345;28;20048;-59
2022/07/28 06:10:02;;;;;;;15.23;3.13;;;;;;;15.73;59.99;101376.47;5094111;28;20036;-60
2022/07/28 06:12:28;;;;;;;16.50;3.35;;;;;;;15.84;59.79;101374.44;5094107;28;20044;-60
2022/07/28 06:14:55;;;;;;;14.35;3.10;;;;;;;16.07;60.53;101375.34;5094104;28;20676;-59
2022/07/28 06:17:22;;;;;;;11.57;3.22;;;;;;;16.09;59.95;101375.19;5093746;28;20209;-59
2022/07/28 06:19:49;;;;;;;13.85;2.90;;;;;;;16.13;58.94;101381.84;5093716;28;20035;-59
2022/07/28 06:22:15;;;;;;;9.60;3.20;;;;;;;16.26;58.40;101375.91;5093974;28;20052;-59
2022/07/28 06:24:42;;;;;;;18.60;3.22;;;;;;;16.37;58.95;101380.03;5093705;28;20055;-59
2022/07/28 06:27:09;;;;;;;9.88;3.20;;;;;;;16.38;58.35;101387.06;5093542;28;20040;-59
2022/07/28 06:29:36;;;;;;;12.27;2.95;;;;;;;16.48;58.30;101375.13;5091130;28;20061;-60
2022/07/28 06:32:03;;;;;;;16.02;3.10;;;;;;;16.57;58.19;101381.28;5092554;28;20053;-60
2022/07/28 06:34:30;;;;;;;14.00;3.33;;;;;;;16.65;58.28;101378.53;5092663;28;20507;-60
2022/07/28 06:36:57;;;;;;;23.27;3.42;;;;;;;16.60;57.27;101380.06;5093471;28;20047;-60
2022/07/28 06:39:24;;;;;;;13.95;2.83;;;;;;;16.69;57.25;101385.19;5093464;28;20054;-60
2022/07/28 06:41:51;;;;;;;20.15;3.25;;;;;;;16.86;57.30;101395.81;5093786;28;20051;-59
2022/07/28 06:44:18;;;;;;;10.75;2.70;;;;;;;16.80;57.01;101381.25;5093435;28;20043;-59
2022/07/28 06:46:45;;;;;;;19.73;3.00;;;;;;;16.93;57.38;101394.06;5093574;28;20048;-60
2022/07/28 06:49:12;;;;;;;11.88;3.00;;;;;;;16.84;56.78;101382.59;5093188;28;20052;-59
2022/07/28 06:51:38;;;;;;;18.38;3.10;;;;;;;16.83;56.33;101380.94;5093634;28;20048;-59
2022/07/28 06:54:05;;;;;;;9.55;2.50;;;;;;;16.93;56.67;101380.69;5093366;28;20051;-59
2022/07/28 06:56:34;;;;;;;12.27;3.10;;;;;;;17.13;56.08;101372.97;5075788;28;20050;-60
2022/07/28 06:59:01;;;;;;;13.90;2.85;;;;;;;17.24;56.53;101375.19;5086160;28;20382;-60
2022/07/28 07:01:28;;;;;;;12.93;2.83;;;;;;;17.46;56.62;101378.00;5082369;28;20036;-59
2022/07/28 07:03:55;;;;;;;10.18;2.67;;;;;;;17.45;55.27;101379.03;5077323;28;20071;-52
2022/07/28 07:06:21;;;;;;;20.65;3.00;;;;;;;17.37;55.25;101379.09;5085930;28;20482;-50
2022/07/28 07:08:48;;;;;;;12.52;2.80;;;;;;;17.41;55.18;101375.06;5084613;28;20041;-52
2022/07/28 07:11:16;;;;;;;12.48;2.70;;;;;;;17.39;55.34;101372.56;5082317;28;20482;-52
2022/07/28 07:13:43;;;;;;;15.32;3.67;;;;;;;17.52;56.04;101366.53;5077878;28;20048;-53
2022/07/28 07:16:09;;;;;;;14.68;2.70;;;;;;;17.51;55.56;101369.41;5072609;28;20044;-51
2022/07/28 07:18:36;;;;;;;14.38;2.60;;;;;;;17.57;55.26;101366.81;5092061;28;20131;-50
2022/07/28 07:21:02;;;;;;;15.85;2.58;;;;;;;17.60;55.24;101369.13;5092463;28;20379;-53
2022/07/28 07:23:29;;;;;;;19.88;3.28;;;;;;;17.71;56.23;101358.94;5092600;28;20101;-51
2022/07/28 07:25:56;;;;;;;18.80;3.80;;;;;;;17.78;55.52;101357.19;5091839;28;20044;-52
2022/07/28 07:28:23;;;;;;;13.43;2.85;;;;;;;17.74;55.57;101356.72;5092227;28;20081;-53
2022/07/28 07:30:49;;;;;;;10.50;2.60;;;;;;;17.56;54.64;101351.75;5091895;28;20130;-50
2022/07/28 07:33:16;;;;;;;15.65;2.80;;;;;;;17.48;54.30;101351.81;5092839;28;20051;-52
2022/07/28 07:35:43;;;;;;;10.70;2.80;;;;;;;17.43;54.58;101357.75;5092661;28;20048;-52
2022/07/28 07:38:10;;;;;;;17.05;3.28;;;;;;;17.42;54.81;101347.19;5092085;28;20063;-52
2022/07/28 07:40:37;;;;;;;18.25;2.90;;;;;;;17.41;53.71;101350.91;5092519;28;20044;-52
2022/07/28 07:43:04;;;;;;;15.65;2.80;;;;;;;17.54;54.13;101351.09;5092623;28;20390;-50
2022/07/28 07:45:33;;;;;;;10.77;2.70;;;;;;;17.64;54.11;101357.03;5092357;28;20509;-52
2022/07/28 07:48:01;;;;;;;14.23;2.88;;;;;;;17.64;54.02;101351.66;5092733;28;20052;-51
2022/07/28 07:50:27;;;;;;;18.88;2.83;;;;;;;17.75;54.06;101354.88;5092946;28;20109;-51
2022/07/28 07:52:54;;;;;;;13.05;3.03;;;;;;;17.78;53.92;101351.81;5091649;28;20052;-51
2022/07/28 07:55:21;;;;;;;16.63;2.80;;;;;;;17.86;54.45;101356.28;5091792;28;20093;-51
2022/07/28 07:57:48;;;;;;;16.30;3.08;;;;;;;17.81;53.40;101357.66;5092654;28;20051;-50
2022/07/28 08:00:15;;;;;;;12.27;2.70;;;;;;;17.78;53.40;101352.66;5092709;28;20172;-52
2022/07/28 08:02:42;;;;;;;12.35;2.60;;;;;;;17.90;52.90;101357.56;5092512;28;20124;-51
2022/07/28 08:05:09;;;;;;;17.27;2.60;;;;;;;17.93;52.64;101357.19;5092114;28;20555;-51
2022/07/28 08:07:36;;;;;;;10.07;2.50;;;;;;;18.01;52.17;101355.25;5092493;28;20135;-52
2022/07/28 08:10:04;;;;;;;11.05;3.00;;;;;;;18.09;52.75;101358.84;5095591;28;20040;-49
2022/07/28 08:12:33;;;;;;;12.63;2.70;;;;;;;18.29;52.62;101348.31;5096177;28;20044;-50
2022/07/28 08:14:59;;;;;;;20.38;2.80;;;;;;;18.40;51.90;101350.50;5096165;28;20097;-51
2022/07/28 08:17:26;;;;;;;7.95;2.47;;;;;;;18.51;52.17;101350.00;5095971;28;20046;-50
2022/07/28 08:19:54;;;;;;;12.50;2.70;;;;;;;18.72;51.74;101340.25;5096474;28;20052;-49
2022/07/28 08:22:21;;;;;;;15.75;2.90;;;;;;;18.83;50.93;101342.47;5095212;28;20047;-51
2022/07/28 08:24:48;;;;;;;10.88;2.40;;;;;;;18.93;50.54;101334.88;5095603;28;20059;-52
2022/07/28 08:27:15;;;;;;;13.10;2.75;;;;;;;19.23;50.04;101340.06;5095811;28;20046;-49
2022/07/28 08:29:43;;;;;;;18.55;2.63;;;;;;;19.22;49.57;101338.41;5094399;28;20043;-51
2022/07/28 08:32:09;;;;;;;11.25;2.50;;;;;;;19.29;49.00;101339.28;5086564;28;20494;-52
2022/07/28 08:34:36;;;;;;;12.68;2.47;;;;;;;19.52;49.15;101335.50;5095886;28;20048;-51
2022/07/28 08:37:04;;;;;;;12.40;2.45;;;;;;;19.49;47.64;101336.72;5094563;28;20052;-52
2022/07/28 08:39:32;;;;;;;9.27;2.30;;;;;;;19.53;47.55;101334.44;5095621;28;20117;-52
2022/07/28 08:42:16;;;;;;;12.40;2.95;;;;;;;19.65;49.43;101330.16;5095340;28;20461;-51
2022/07/28 08:44:50;;;;;;;14.40;2.95;;;;;;;19.72;47.40;101322.13;5095415;28;20048;-53
2022/07/28 08:47:18;;;;;;;25.95;9.52;;;;;;;20.12;46.44;101325.00;5095397;28;20059;-50
2022/07/28 08:49:47;;;;;;;19.67;4.70;;;;;;;20.07;46.05;101328.28;5094026;28;20117;-53
2022/07/28 08:52:18;;;;;;;14.60;2.83;;;;;;;20.03;45.60;101328.88;5095014;28;20429;-52
2022/07/28 08:54:46;;;;;;;9.97;2.33;;;;;;;20.05;45.80;101324.97;5095048;28;20039;-51
2022/07/28 08:57:21;;;;;;;12.10;3.40;;;;;;;20.29;45.87;101317.38;5095249;28;20293;-51
2022/07/28 08:59:48;;;;;;;13.05;2.63;;;;;;;20.34;45.41;101325.66;5095415;28;20054;-50
2022/07/28 09:02:15;;;;;;;11.32;3.60;;;;;;;20.30;44.76;101316.31;5095098;28;20497;-50
2022/07/28 09:04:45;;;;;;;13.18;3.53;;;;;;;20.21;45.25;101318.38;5094529;28;20039;-52
2022/07/28 09:07:12;;;;;;;10.80;2.80;;;;;;;20.11;45.28;101315.25;5094008;28;20048;-50
2022/07/28 09:09:39;;;;;;;18.52;2.50;;;;;;;20.33;45.86;101314.03;5095091;28;20050;-51
2022/07/28 09:12:06;;;;;;;12.90;2.55;;;;;;;20.20;45.13;101318.59;5094778;28;20393;-53
2022/07/28 09:14:33;;;;;;;10.15;2.20;;;;;;;20.26;44.68;101315.88;5094616;28;20044;-53
2022/07/28 09:17:01;;;;;;;11.98;2.40;;;;;;;20.44;44.88;101320.69;5094686;28;20113;-52
2022/07/28 09:19:28;;;;;;;10.32;2.50;;;;;;;20.44;44.59;101318.00;5094209;28;20044;-51
2022/07/28 09:21:55;;;;;;;9.77;2.40;;;;;;;20.41;44.55;101318.44;5095045;28;20481;-52
2022/07/28 09:24:40;;;;;;;9.43;2.60;;;;;;;20.62;44.42;101312.03;5093051;28;20081;-52
2022/07/28 09:27:10;;;;;;;9.68;2.58;;;;;;;20.91;43.62;101315.34;5094619;28;20056;-52
2022/07/28 09:29:40;;;;;;;10.95;3.08;;;;;;;21.01;44.27;101314.91;5101165;28;20040;-51
2022/07/28 09:32:07;;;;;;;13.10;2.67;;;;;;;21.18;44.28;101318.84;5094558;28;20044;-52
2022/07/28 09:34:40;;;;;;;14.93;2.53;;;;;;;21.30;42.44;101316.31;5088380;28;20044;-50
2022/07/28 09:37:24;;;;;;;11.13;2.88;;;;;;;21.58;42.56;101307.97;5092155;28;20131;-52
2022/07/28 09:39:57;;;;;;;10.63;2.67;;;;;;;21.36;42.09;101312.78;5092976;28;20109;-52
2022/07/28 09:42:24;;;;;;;8.77;2.20;;;;;;;21.41;41.98;101306.75;5081403;28;20032;-52
2022/07/28 09:45:07;;;;;;;9.68;2.35;;;;;;;21.48;42.02;101307.56;5086362;28;20036;-49
2022/07/28 09:48:09;;;;;;;12.43;2.22;;;;;;;21.60;41.70;101296.97;5091825;28;20510;-51
2022/07/28 09:50:38;;;;;;;12.63;2.40;;;;;;;21.73;40.44;101304.19;5094209;28;20066;-51
2022/07/28 09:53:26;;;;;;;10.63;2.15;;;;;;;21.97;40.09;101305.31;5093066;28;20040;-51
2022/07/28 09:56:01;;;;;;;12.73;2.40;;;;;;;21.94;39.83;101305.72;5074910;28;20072;-52
2022/07/28 09:58:28;;;;;;;13.63;2.38;;;;;;;21.93;39.95;101299.50;5086932;28;20044;-51
2022/07/28 10:01:12;;;;;;;17.42;3.10;;;;;;;21.90;39.83;101296.41;5091758;28;20131;-51
2022/07/28 10:03:41;;;;;;;12.50;2.35;;;;;;;22.39;40.67;101293.03;5073018;28;20135;-52
2022/07/28 10:06:14;;;;;;;9.88;1.98;;;;;;;22.78;39.54;101285.63;5072992;28;20414;-52
2022/07/28 10:08:47;;;;;;;12.18;2.55;;;;;;;23.10;38.51;101293.69;5078792;28;20048;-51
2022/07/28 10:11:16;;;;;;;14.63;2.63;;;;;;;23.21;37.36;101288.56;5085759;28;20048;-51
2022/07/28 10:13:57;;;;;;;8.00;2.30;;;;;;;23.02;37.44;101283.09;5082474;28;20047;-51
2022/07/28 10:16:27;;;;;;;9.93;2.22;;;;;;;23.02;36.31;101282.28;5092476;28;20040;-52
2022/07/28 10:18:56;;;;;;;10.77;2.38;;;;;;;23.51;37.49;101278.63;5091435;28;20130;-51
2022/07/28 10:21:24;;;;;;;16.15;2.20;;;;;;;23.45;36.10;101278.69;5093684;28;20032;-52
2022/07/28 10:23:54;;;;;;;12.85;2.38;;;;;;;23.00;37.19;101279.81;5093633;28;20489;-51
2022/07/28 10:26:28;;;;;;;12.88;2.45;;;;;;;23.41;37.23;101272.91;5093556;28;20051;-52
2022/07/28 10:28:55;;;;;;;13.18;2.30;;;;;;;23.38;36.43;101276.09;5089143;28;20052;-52
2022/07/28 10:31:30;;;;;;;11.75;2.83;;;;;;;23.43;36.67;101268.13;5076951;28;20880;-52
2022/07/28 10:33:58;;;;;;;11.32;2.30;;;;;;;23.55;36.31;101270.88;5072577;28;20055;-52
2022/07/28 10:36:26;;;;;;;10.75;2.50;;;;;;;23.83;36.78;101273.06;5085660;28;20036;-52
2022/07/28 10:39:01;;;;;;;13.95;2.70;;;;;;;23.48;37.60;101275.53;5093617;28;20444;-51
2022/07/28 10:41:33;;;;;;;10.45;2.50;;;;;;;23.75;37.77;101266.03;5079329;28;20048;-52
2022/07/28 10:44:01;;;;;;;17.33;2.60;;;;;;;23.68;37.01;101259.03;5095834;28;20089;-52
2022/07/28 10:46:30;;;;;;;13.65;2.20;;;;;;;23.32;37.39;101248.06;5093131;28;20052;-53
2022/07/28 10:48:57;;;;;;;7.55;2.40;;;;;;;23.74;37.83;101263.56;5093084;28;20517;-50
2022/07/28 10:51:26;;;;;;;10.52;2.20;;;;;;;24.22;36.73;101251.84;5091983;28;20470;-53
2022/07/28 10:54:07;;;;;;;13.05;2.60;;;;;;;24.05;35.94;101258.97;5077978;28;20040;-51
2022/07/28 10:56:45;;;;;;;11.05;2.47;;;;;;;24.07;36.10;101259.59;5088045;28;20521;-51
2022/07/28 10:59:29;;;;;;;11.75;2.40;;;;;;;24.15;36.74;101253.81;5086849;28;20374;-52
2022/07/28 11:01:56;;;;;;;12.52;2.60;;;;;;;24.28;36.10;101245.47;5090933;28;20040;-52
2022/07/28 11:07:19;;;;;;;10.85;2.85;;;;;;;23.54;36.60;101239.47;5117710;27;20369;-52
2022/07/28 11:09:47;;;;;;;9.75;2.53;;;;;;;23.98;37.39;101241.97;5108511;28;20038;-51
2022/07/28 11:12:14;;;;;;;10.82;2.38;;;;;;;24.20;36.49;101237.69;5109154;28;20101;-51
2022/07/28 11:14:42;;;;;;;11.05;2.40;;;;;;;24.33;36.50;101250.22;5103206;28;20056;-51
2022/07/28 11:17:13;;;;;;;16.27;2.50;;;;;;;24.18;36.49;101245.22;5093288;28;20040;-51
2022/07/28 11:22:26;;;;;;;9.95;2.95;;;;;;;23.81;36.81;101241.81;5125738;27;20351;-52
2022/07/28 11:32:57;;;;;;;9.80;3.17;;;;;;;24.67;36.05;101236.94;5112069;27;20367;-50
2022/07/28 11:35:28;;;;;;;12.20;4.60;;;;;;;24.97;34.87;101228.66;5108605;28;20048;-51
2022/07/28 11:38:06;;;;;;;12.38;3.70;;;;;;;25.17;34.91;101235.59;5110658;28;20044;-51
2022/07/28 11:40:44;;;;;;;11.23;2.53;;;;;;;25.15;34.97;101230.38;5055489;28;20551;-51
2022/07/28 11:43:28;;;;;;;9.13;2.53;;;;;;;24.94;35.89;101229.16;5103725;28;20059;-53